createdAt,value
2023-02-21T00:03:30.273Z,8.73
2023-02-21T00:08:45.082Z,8.75
2023-02-21T00:14:00.240Z,8.61
2023-02-21T00:19:18.004Z,8.65
2023-02-21T00:24:34.173Z,8.65
2023-02-21T00:29:53.112Z,8.68
2023-02-21T00:35:13.312Z,8.54
2023-02-21T00:40:29.657Z,8.18
2023-02-21T00:45:47.445Z,8.23
2023-02-21T00:51:03.567Z,8.44
2023-02-21T00:56:18.477Z,8.29
2023-02-21T01:01:33.244Z,8.42
2023-02-21T01:06:48.941Z,8.03
2023-02-21T01:12:04.267Z,8.02
2023-02-21T01:17:20.468Z,7.96
2023-02-21T01:22:36.314Z,7.79
2023-02-21T01:27:53.145Z,7.78
2023-02-21T01:33:08.068Z,7.83
2023-02-21T01:38:23.702Z,7.59
2023-02-21T01:43:40.012Z,7.40
2023-02-21T01:48:55.041Z,7.06
2023-02-21T01:54:12.740Z,7.03
2023-02-21T01:59:28.140Z,6.89
2023-02-21T02:04:43.008Z,7.10
2023-02-21T02:09:58.866Z,7.24
2023-02-21T02:15:10.286Z,7.31
2023-02-21T02:20:28.596Z,7.38
2023-02-21T02:25:39.744Z,7.54
2023-02-21T02:30:58.948Z,7.50
2023-02-21T02:36:00.537Z,7.58
2023-02-21T02:40:59.691Z,7.55
2023-02-21T02:45:58.511Z,7.78
2023-02-21T02:50:56.058Z,7.71
2023-02-21T02:55:56.913Z,7.79
2023-02-21T03:01:00.855Z,7.62
2023-02-21T03:06:05.107Z,7.65
2023-02-21T03:11:09.013Z,7.51
2023-02-21T03:16:11.903Z,7.65
2023-02-21T03:21:11.546Z,7.73
2023-02-21T03:26:10.477Z,7.52
2023-02-21T03:31:11.513Z,7.50
2023-02-21T03:36:09.286Z,7.61
2023-02-21T03:41:08.863Z,7.57
2023-02-21T03:46:08.641Z,7.63
2023-02-21T03:51:06.483Z,7.67
2023-02-21T03:56:07.473Z,7.72
2023-02-21T04:01:27.480Z,7.80
2023-02-21T04:06:25.202Z,8.00
2023-02-21T04:11:22.101Z,7.96
2023-02-21T04:16:20.299Z,7.97
2023-02-21T04:21:19.636Z,8.05
2023-02-21T04:26:19.204Z,8.17
2023-02-21T04:31:19.873Z,8.08
2023-02-21T04:36:16.852Z,8.03
2023-02-21T04:41:15.640Z,7.90
2023-02-21T04:46:15.443Z,8.09
2023-02-21T04:51:15.648Z,8.03
2023-02-21T04:56:12.514Z,7.89
2023-02-21T05:01:11.221Z,7.93
2023-02-21T05:06:08.195Z,7.83
2023-02-21T05:11:05.267Z,7.91
2023-02-21T05:16:01.907Z,8.06
2023-02-21T05:20:59.336Z,7.93
2023-02-21T05:25:55.947Z,8.10
2023-02-21T05:30:52.937Z,8.18
2023-02-21T05:35:50.129Z,8.34
2023-02-21T05:40:47.593Z,8.07
2023-02-21T05:45:44.386Z,8.38
2023-02-21T05:50:41.232Z,8.54
2023-02-21T05:55:38.044Z,8.50
2023-02-21T06:00:38.590Z,8.45
2023-02-21T06:05:35.359Z,8.62
2023-02-21T06:10:31.939Z,8.77
2023-02-21T06:15:28.570Z,8.77
2023-02-21T06:20:26.003Z,8.67
2023-02-21T06:25:23.594Z,8.94
2023-02-21T06:30:24.409Z,8.79
2023-02-21T06:35:22.138Z,8.96
2023-02-21T06:40:22.525Z,9.18
2023-02-21T06:45:24.063Z,9.13
2023-02-21T06:50:20.915Z,9.07
2023-02-21T06:55:23.057Z,9.32
2023-02-21T07:00:23.272Z,9.39
2023-02-21T07:05:22.747Z,9.60
2023-02-21T07:10:20.313Z,9.69
2023-02-21T07:15:17.096Z,9.66
2023-02-21T07:20:13.820Z,9.92
2023-02-21T07:25:13.862Z,10.25
2023-02-21T07:30:14.862Z,10.64
2023-02-21T07:35:11.603Z,10.95
2023-02-21T07:40:08.676Z,11.16
2023-02-21T07:45:05.574Z,11.60
2023-02-21T07:50:03.071Z,11.87
2023-02-21T07:55:00.273Z,12.25
2023-02-21T07:59:57.080Z,12.48
2023-02-21T08:04:53.846Z,13.03
2023-02-21T08:09:51.416Z,13.66
2023-02-21T08:14:48.121Z,13.73
2023-02-21T08:19:45.189Z,13.81
2023-02-21T08:24:49.558Z,13.99
2023-02-21T08:29:49.334Z,14.03
2023-02-21T08:34:46.294Z,14.14
2023-02-21T08:39:44.994Z,14.39
2023-02-21T08:44:45.751Z,14.63
2023-02-21T08:49:46.981Z,14.58
2023-02-21T08:54:44.461Z,14.78
2023-02-21T08:59:44.488Z,15.04
2023-02-21T09:04:41.490Z,15.09
2023-02-21T09:09:39.299Z,15.06
2023-02-21T09:14:36.857Z,15.44
2023-02-21T09:19:33.899Z,15.16
2023-02-21T09:24:31.438Z,15.07
2023-02-21T09:29:37.069Z,15.37
2023-02-21T09:34:41.171Z,15.38
2023-02-21T09:39:38.517Z,15.34
2023-02-21T09:44:35.811Z,15.40
2023-02-21T09:49:33.942Z,15.52
2023-02-21T09:54:32.577Z,15.55
2023-02-21T09:59:29.716Z,15.59
2023-02-21T10:04:34.296Z,15.73
2023-02-21T10:09:43.345Z,15.77
2023-02-21T10:14:48.072Z,15.91
2023-02-21T10:19:48.949Z,15.88
2023-02-21T10:24:46.115Z,15.91
2023-02-21T10:29:46.245Z,15.92
2023-02-21T10:34:47.259Z,15.99
2023-02-21T10:39:49.841Z,16.19
2023-02-21T10:44:46.766Z,16.25
2023-02-21T10:49:47.919Z,16.47
2023-02-21T10:55:03.016Z,16.41
2023-02-21T11:00:09.525Z,16.27
2023-02-21T11:05:14.219Z,16.34
2023-02-21T11:10:29.114Z,16.39
2023-02-21T11:15:26.014Z,16.44
2023-02-21T11:20:24.231Z,16.71
2023-02-21T11:25:23.067Z,16.88
2023-02-21T11:30:22.154Z,16.87
2023-02-21T11:35:24.050Z,16.91
2023-02-21T11:40:25.523Z,16.87
2023-02-21T11:45:29.361Z,16.84
2023-02-21T11:50:32.679Z,16.86
2023-02-21T11:55:31.450Z,16.92
2023-02-21T12:00:35.202Z,16.97
2023-02-21T12:05:46.281Z,17.22
2023-02-21T12:10:54.399Z,17.19
2023-02-21T12:16:13.184Z,17.36
2023-02-21T12:21:34.262Z,17.49
2023-02-21T12:26:39.867Z,17.31
2023-02-21T12:31:50.534Z,17.46
2023-02-21T12:36:58.972Z,17.40
2023-02-21T12:42:07.312Z,17.43
2023-02-21T12:47:12.983Z,17.45
2023-02-21T12:52:16.842Z,17.36
2023-02-21T12:57:17.689Z,17.59
2023-02-21T13:02:23.618Z,17.70
2023-02-21T13:07:25.336Z,17.67
2023-02-21T13:12:28.726Z,17.75
2023-02-21T13:17:28.898Z,17.89
2023-02-21T13:23:02.721Z,17.90
2023-02-21T13:29:04.169Z,17.87
2023-02-21T13:34:02.169Z,17.89
2023-02-21T13:39:01.862Z,17.87
2023-02-21T13:44:00.249Z,17.89
2023-02-21T13:49:19.887Z,17.83
2023-02-21T13:54:21.856Z,17.86
2023-02-21T13:59:33.747Z,17.90
2023-02-21T14:04:48.207Z,17.81
2023-02-21T14:09:46.302Z,17.92
2023-02-21T14:14:46.818Z,17.91
2023-02-21T14:19:46.136Z,17.79
2023-02-21T14:24:48.585Z,17.79
2023-02-21T14:30:08.702Z,17.79
2023-02-21T14:35:21.105Z,17.75
2023-02-21T14:40:25.184Z,17.65
2023-02-21T14:45:40.092Z,17.63
2023-02-21T14:51:07.107Z,17.65
2023-02-21T14:56:28.115Z,17.64
2023-02-21T15:01:35.305Z,17.51
2023-02-21T15:06:33.241Z,17.63
2023-02-21T15:11:33.171Z,17.70
2023-02-21T15:16:31.848Z,17.59
2023-02-21T15:21:28.863Z,17.52
2023-02-21T15:26:26.699Z,17.38
2023-02-21T15:31:23.540Z,17.39
2023-02-21T15:36:22.262Z,17.22
2023-02-21T15:41:24.927Z,17.04
2023-02-21T15:46:23.968Z,16.91
2023-02-21T15:51:21.971Z,16.55
2023-02-21T15:56:22.733Z,16.50
2023-02-21T16:01:22.014Z,16.35
2023-02-21T16:06:20.616Z,16.19
2023-02-21T16:11:18.675Z,16.11
2023-02-21T16:16:17.072Z,16.06
2023-02-21T16:21:22.028Z,16.03
2023-02-21T16:26:24.765Z,15.90
2023-02-21T16:31:25.362Z,15.88
2023-02-21T16:36:23.711Z,15.91
2023-02-21T16:41:21.501Z,15.73
2023-02-21T16:46:30.328Z,15.75
2023-02-21T16:51:32.863Z,15.78
2023-02-21T16:56:30.337Z,15.71
2023-02-21T17:01:29.642Z,15.68
2023-02-21T17:06:27.725Z,15.59
2023-02-21T17:11:24.970Z,15.52
2023-02-21T17:16:22.968Z,15.60
2023-02-21T17:21:20.021Z,15.41
2023-02-21T17:26:17.011Z,15.26
2023-02-21T17:31:16.709Z,15.11
2023-02-21T17:36:16.591Z,14.91
2023-02-21T17:41:15.410Z,14.73
2023-02-21T17:46:13.239Z,14.92
2023-02-21T17:51:10.249Z,14.84
2023-02-21T17:56:09.222Z,15.05
2023-02-21T18:01:05.866Z,15.21
2023-02-21T18:06:02.427Z,15.37
2023-02-21T18:10:59.294Z,15.06
2023-02-21T18:15:56.740Z,15.44
2023-02-21T18:20:53.385Z,15.12
2023-02-21T18:25:54.324Z,15.31
2023-02-21T18:30:53.647Z,14.95
2023-02-21T18:35:56.337Z,15.12
2023-02-21T18:40:54.115Z,15.08
2023-02-21T18:45:51.887Z,14.96
2023-02-21T18:50:48.653Z,14.50
2023-02-21T18:55:48.741Z,14.18
2023-02-21T19:00:49.258Z,13.94
2023-02-21T19:05:46.193Z,14.00
2023-02-21T19:10:43.050Z,13.91
2023-02-21T19:15:40.928Z,14.07
2023-02-21T19:20:39.374Z,14.14
2023-02-21T19:25:36.081Z,14.23
2023-02-21T19:30:36.053Z,14.25
2023-02-21T19:35:34.100Z,14.32
2023-02-21T19:40:30.952Z,14.07
2023-02-21T19:45:27.834Z,14.01
2023-02-21T19:50:24.880Z,13.93
2023-02-21T19:55:22.389Z,14.05
2023-02-21T20:00:19.790Z,14.26
2023-02-21T20:05:17.029Z,13.96
2023-02-21T20:10:13.985Z,13.58
2023-02-21T20:15:11.800Z,13.28
2023-02-21T20:20:11.980Z,13.30
2023-02-21T20:25:11.413Z,13.19
2023-02-21T20:30:09.191Z,13.47
2023-02-21T20:35:12.009Z,13.61
2023-02-21T20:40:12.422Z,13.69
2023-02-21T20:45:11.431Z,13.51
2023-02-21T20:50:09.064Z,13.64
2023-02-21T20:55:09.046Z,13.64
2023-02-21T21:00:08.974Z,13.68
2023-02-21T21:05:13.140Z,13.62
2023-02-21T21:10:14.372Z,13.74
2023-02-21T21:15:13.894Z,13.68
2023-02-21T21:20:14.170Z,13.34
2023-02-21T21:25:12.322Z,13.48
2023-02-21T21:30:12.797Z,13.29
2023-02-21T21:35:11.006Z,13.42
2023-02-21T21:40:15.015Z,13.16
2023-02-21T21:45:19.466Z,12.86
2023-02-21T21:50:17.004Z,12.59
2023-02-21T21:55:17.747Z,12.62
2023-02-21T22:00:21.143Z,12.67
2023-02-21T22:05:18.119Z,12.82
2023-02-21T22:10:15.062Z,12.79
2023-02-21T22:15:11.661Z,12.89
2023-02-21T22:20:18.173Z,13.06
2023-02-21T22:25:15.539Z,13.28
2023-02-21T22:30:13.772Z,12.81
2023-02-21T22:35:17.788Z,12.74
2023-02-21T22:40:17.555Z,12.57
2023-02-21T22:45:14.231Z,12.63
2023-02-21T22:50:12.722Z,12.63
2023-02-21T22:55:10.472Z,12.77
2023-02-21T23:00:18.999Z,12.71
2023-02-21T23:05:19.259Z,12.63
2023-02-21T23:10:17.083Z,12.31
2023-02-21T23:15:18.091Z,12.42
2023-02-21T23:20:15.440Z,12.28
2023-02-21T23:25:19.804Z,12.30
2023-02-21T23:30:18.229Z,12.28
2023-02-21T23:35:15.858Z,12.36
2023-02-21T23:40:17.290Z,12.51
2023-02-21T23:45:14.508Z,12.46
2023-02-21T23:50:17.181Z,12.58
2023-02-21T23:55:15.831Z,12.50
